sensor_id;sensor_type;location;lat;lon;timestamp;P1;durP1;ratioP1;P2;durP2;ratioP2
6394;SDS011;3230;42.588;23.358;2024-03-23T00:54:51;1.40;;;1.30;;
6394;SDS011;3230;42.588;23.358;2024-03-23T00:57:16;2.03;;;1.37;;
6394;SDS011;3230;42.588;23.358;2024-03-23T00:59:41;1.63;;;1.40;;
6394;SDS011;3230;42.588;23.358;2024-03-23T01:02:07;2.13;;;1.60;;
6394;SDS011;3230;42.588;23.358;2024-03-23T01:04:32;1.80;;;1.60;;
6394;SDS011;3230;42.588;23.358;2024-03-23T01:06:58;1.80;;;1.70;;
6394;SDS011;3230;42.588;23.358;2024-03-23T01:09:23;1.60;;;1.50;;
6394;SDS011;3230;42.588;23.358;2024-03-23T01:11:49;1.70;;;1.60;;
6394;SDS011;3230;42.588;23.358;2024-03-23T01:14:14;3.53;;;1.30;;
6394;SDS011;3230;42.588;23.358;2024-03-23T01:16:39;1.10;;;1.00;;
6394;SDS011;3230;42.588;23.358;2024-03-23T01:19:05;2.73;;;1.20;;
6394;SDS011;3230;42.588;23.358;2024-03-23T01:21:31;1.10;;;1.00;;
6394;SDS011;3230;42.588;23.358;2024-03-23T01:23:56;5.30;;;2.90;;
6394;SDS011;3230;42.588;23.358;2024-03-23T01:26:22;2.77;;;1.37;;
6394;SDS011;3230;42.588;23.358;2024-03-23T01:28:47;1.40;;;1.17;;
6394;SDS011;3230;42.588;23.358;2024-03-23T01:31:13;1.17;;;0.90;;
6394;SDS011;3230;42.588;23.358;2024-03-23T01:33:38;1.40;;;1.20;;
6394;SDS011;3230;42.588;23.358;2024-03-23T01:36:03;1.30;;;1.17;;
6394;SDS011;3230;42.588;23.358;2024-03-23T01:38:29;1.30;;;1.10;;
6394;SDS011;3230;42.588;23.358;2024-03-23T01:40:57;2.30;;;1.20;;
6394;SDS011;3230;42.588;23.358;2024-03-23T01:43:23;2.35;;;1.60;;
6394;SDS011;3230;42.588;23.358;2024-03-23T01:45:48;1.70;;;1.20;;
6394;SDS011;3230;42.588;23.358;2024-03-23T01:48:14;2.53;;;1.30;;
6394;SDS011;3230;42.588;23.358;2024-03-23T01:50:39;1.50;;;1.30;;
6394;SDS011;3230;42.588;23.358;2024-03-23T01:53:05;1.77;;;1.27;;
6394;SDS011;3230;42.588;23.358;2024-03-23T01:55:32;2.72;;;1.35;;
6394;SDS011;3230;42.588;23.358;2024-03-23T01:57:58;2.45;;;1.35;;
6394;SDS011;3230;42.588;23.358;2024-03-23T02:00:23;3.30;;;2.00;;
6394;SDS011;3230;42.588;23.358;2024-03-23T02:02:49;2.13;;;1.53;;
6394;SDS011;3230;42.588;23.358;2024-03-23T02:05:14;2.40;;;1.40;;
6394;SDS011;3230;42.588;23.358;2024-03-23T02:07:40;2.33;;;1.47;;
6394;SDS011;3230;42.588;23.358;2024-03-23T02:10:07;1.95;;;1.35;;
6394;SDS011;3230;42.588;23.358;2024-03-23T02:12:33;2.95;;;2.10;;
6394;SDS011;3230;42.588;23.358;2024-03-23T02:14:59;2.50;;;1.70;;
6394;SDS011;3230;42.588;23.358;2024-03-23T02:17:25;2.93;;;1.70;;
6394;SDS011;3230;42.588;23.358;2024-03-23T02:19:50;3.70;;;1.80;;
6394;SDS011;3230;42.588;23.358;2024-03-23T02:22:15;6.37;;;1.70;;
6394;SDS011;3230;42.588;23.358;2024-03-23T02:24:41;3.37;;;1.87;;
6394;SDS011;3230;42.588;23.358;2024-03-23T02:27:07;2.43;;;1.70;;
6394;SDS011;3230;42.588;23.358;2024-03-23T02:29:33;2.70;;;1.60;;
6394;SDS011;3230;42.588;23.358;2024-03-23T02:31:58;5.20;;;2.43;;
6394;SDS011;3230;42.588;23.358;2024-03-23T02:34:24;2.60;;;2.10;;
6394;SDS011;3230;42.588;23.358;2024-03-23T02:36:50;2.07;;;1.83;;
6394;SDS011;3230;42.588;23.358;2024-03-23T02:39:15;2.73;;;2.00;;
6394;SDS011;3230;42.588;23.358;2024-03-23T02:41:40;2.50;;;1.30;;
6394;SDS011;3230;42.588;23.358;2024-03-23T02:44:06;5.17;;;1.80;;
6394;SDS011;3230;42.588;23.358;2024-03-23T02:46:32;1.90;;;1.70;;
6394;SDS011;3230;42.588;23.358;2024-03-23T02:48:57;2.30;;;1.57;;
6394;SDS011;3230;42.588;23.358;2024-03-23T02:51:22;3.60;;;2.10;;
6394;SDS011;3230;42.588;23.358;2024-03-23T02:53:48;3.50;;;2.17;;
6394;SDS011;3230;42.588;23.358;2024-03-23T02:56:13;5.23;;;2.97;;
6394;SDS011;3230;42.588;23.358;2024-03-23T02:58:41;2.95;;;2.25;;
6394;SDS011;3230;42.588;23.358;2024-03-23T03:01:07;4.32;;;2.58;;
6394;SDS011;3230;42.588;23.358;2024-03-23T03:03:32;4.30;;;2.50;;
6394;SDS011;3230;42.588;23.358;2024-03-23T03:05:58;5.70;;;2.40;;
6394;SDS011;3230;42.588;23.358;2024-03-23T03:08:23;2.97;;;1.90;;
6394;SDS011;3230;42.588;23.358;2024-03-23T03:10:49;2.67;;;1.90;;
6394;SDS011;3230;42.588;23.358;2024-03-23T03:13:14;2.10;;;1.80;;
6394;SDS011;3230;42.588;23.358;2024-03-23T03:15:43;2.17;;;1.70;;
6394;SDS011;3230;42.588;23.358;2024-03-23T03:18:09;2.10;;;1.60;;
6394;SDS011;3230;42.588;23.358;2024-03-23T03:20:36;3.53;;;1.77;;
6394;SDS011;3230;42.588;23.358;2024-03-23T03:23:04;3.75;;;2.10;;
6394;SDS011;3230;42.588;23.358;2024-03-23T03:25:29;5.70;;;2.40;;
6394;SDS011;3230;42.588;23.358;2024-03-23T03:27:55;4.80;;;2.73;;
6394;SDS011;3230;42.588;23.358;2024-03-23T03:30:20;6.40;;;2.80;;
6394;SDS011;3230;42.588;23.358;2024-03-23T03:32:46;7.13;;;3.60;;
6394;SDS011;3230;42.588;23.358;2024-03-23T03:35:11;5.30;;;3.37;;
6394;SDS011;3230;42.588;23.358;2024-03-23T03:37:36;7.97;;;4.00;;
6394;SDS011;3230;42.588;23.358;2024-03-23T03:40:02;11.93;;;5.00;;
6394;SDS011;3230;42.588;23.358;2024-03-23T03:42:28;9.25;;;3.88;;
6394;SDS011;3230;42.588;23.358;2024-03-23T03:44:53;6.83;;;3.80;;
6394;SDS011;3230;42.588;23.358;2024-03-23T03:47:19;5.50;;;3.17;;
6394;SDS011;3230;42.588;23.358;2024-03-23T03:49:44;5.97;;;3.70;;
6394;SDS011;3230;42.588;23.358;2024-03-23T03:52:10;6.50;;;3.20;;
6394;SDS011;3230;42.588;23.358;2024-03-23T03:54:36;4.10;;;3.03;;
6394;SDS011;3230;42.588;23.358;2024-03-23T03:57:01;4.83;;;2.90;;
6394;SDS011;3230;42.588;23.358;2024-03-23T03:59:27;4.40;;;2.90;;
6394;SDS011;3230;42.588;23.358;2024-03-23T04:01:52;3.60;;;2.40;;
6394;SDS011;3230;42.588;23.358;2024-03-23T04:04:17;3.90;;;2.67;;
6394;SDS011;3230;42.588;23.358;2024-03-23T04:06:43;3.10;;;2.50;;
6394;SDS011;3230;42.588;23.358;2024-03-23T04:09:09;4.73;;;2.50;;
6394;SDS011;3230;42.588;23.358;2024-03-23T04:11:35;4.22;;;2.55;;
6394;SDS011;3230;42.588;23.358;2024-03-23T04:14:00;3.50;;;2.60;;
6394;SDS011;3230;42.588;23.358;2024-03-23T04:16:29;3.80;;;2.57;;
6394;SDS011;3230;42.588;23.358;2024-03-23T04:18:59;6.75;;;2.83;;
6394;SDS011;3230;42.588;23.358;2024-03-23T04:21:24;5.27;;;2.67;;
6394;SDS011;3230;42.588;23.358;2024-03-23T04:23:50;5.13;;;2.90;;
6394;SDS011;3230;42.588;23.358;2024-03-23T04:26:15;3.80;;;2.47;;
6394;SDS011;3230;42.588;23.358;2024-03-23T04:28:41;4.03;;;2.60;;
6394;SDS011;3230;42.588;23.358;2024-03-23T04:31:07;4.28;;;2.60;;
6394;SDS011;3230;42.588;23.358;2024-03-23T04:33:33;5.63;;;2.90;;
6394;SDS011;3230;42.588;23.358;2024-03-23T04:35:59;3.60;;;2.33;;
6394;SDS011;3230;42.588;23.358;2024-03-23T04:38:24;3.30;;;2.30;;
6394;SDS011;3230;42.588;23.358;2024-03-23T04:40:57;3.73;;;2.60;;
6394;SDS011;3230;42.588;23.358;2024-03-23T04:43:23;3.50;;;2.50;;
6394;SDS011;3230;42.588;23.358;2024-03-23T04:45:49;4.57;;;2.90;;
6394;SDS011;3230;42.588;23.358;2024-03-23T04:48:14;7.90;;;3.00;;
6394;SDS011;3230;42.588;23.358;2024-03-23T04:50:40;3.27;;;2.20;;
6394;SDS011;3230;42.588;23.358;2024-03-23T04:53:06;3.37;;;2.30;;
6394;SDS011;3230;42.588;23.358;2024-03-23T04:55:32;2.70;;;2.07;;
6394;SDS011;3230;42.588;23.358;2024-03-23T04:57:57;3.80;;;2.57;;
6394;SDS011;3230;42.588;23.358;2024-03-23T05:00:22;4.70;;;2.87;;
6394;SDS011;3230;42.588;23.358;2024-03-23T05:02:52;3.40;;;2.43;;
6394;SDS011;3230;42.588;23.358;2024-03-23T05:05:18;3.47;;;2.30;;
6394;SDS011;3230;42.588;23.358;2024-03-23T05:07:50;6.40;;;3.33;;
6394;SDS011;3230;42.588;23.358;2024-03-23T05:10:15;7.60;;;4.10;;
6394;SDS011;3230;42.588;23.358;2024-03-23T05:12:41;7.40;;;3.90;;
6394;SDS011;3230;42.588;23.358;2024-03-23T05:15:07;7.17;;;4.10;;
6394;SDS011;3230;42.588;23.358;2024-03-23T05:17:32;6.90;;;4.27;;
6394;SDS011;3230;42.588;23.358;2024-03-23T05:19:58;8.00;;;4.80;;
6394;SDS011;3230;42.588;23.358;2024-03-23T05:22:23;9.43;;;4.60;;
6394;SDS011;3230;42.588;23.358;2024-03-23T05:24:48;41.73;;;22.97;;
6394;SDS011;3230;42.588;23.358;2024-03-23T05:27:14;34.40;;;16.33;;
6394;SDS011;3230;42.588;23.358;2024-03-23T05:29:39;32.90;;;17.53;;
6394;SDS011;3230;42.588;23.358;2024-03-23T05:32:05;18.73;;;9.50;;
6394;SDS011;3230;42.588;23.358;2024-03-23T05:34:30;20.23;;;10.40;;
6394;SDS011;3230;42.588;23.358;2024-03-23T05:36:56;25.90;;;10.87;;
6394;SDS011;3230;42.588;23.358;2024-03-23T05:39:21;12.67;;;8.23;;
6394;SDS011;3230;42.588;23.358;2024-03-23T05:41:47;15.13;;;7.03;;
6394;SDS011;3230;42.588;23.358;2024-03-23T05:44:13;11.43;;;7.00;;
6394;SDS011;3230;42.588;23.358;2024-03-23T05:46:39;9.90;;;6.00;;
6394;SDS011;3230;42.588;23.358;2024-03-23T05:49:04;10.27;;;5.80;;
6394;SDS011;3230;42.588;23.358;2024-03-23T05:51:29;18.43;;;9.23;;
6394;SDS011;3230;42.588;23.358;2024-03-23T05:53:55;15.90;;;6.30;;
6394;SDS011;3230;42.588;23.358;2024-03-23T05:56:20;7.83;;;4.60;;
6394;SDS011;3230;42.588;23.358;2024-03-23T05:58:45;9.60;;;4.40;;
6394;SDS011;3230;42.588;23.358;2024-03-23T06:01:11;13.00;;;4.70;;
6394;SDS011;3230;42.588;23.358;2024-03-23T06:03:38;6.67;;;4.37;;
6394;SDS011;3230;42.588;23.358;2024-03-23T06:06:03;7.80;;;3.93;;
6394;SDS011;3230;42.588;23.358;2024-03-23T06:08:29;6.93;;;4.03;;
6394;SDS011;3230;42.588;23.358;2024-03-23T06:10:54;7.00;;;4.83;;
6394;SDS011;3230;42.588;23.358;2024-03-23T06:13:20;6.63;;;4.63;;
6394;SDS011;3230;42.588;23.358;2024-03-23T06:15:49;5.00;;;3.60;;
6394;SDS011;3230;42.588;23.358;2024-03-23T06:18:15;10.17;;;4.57;;
6394;SDS011;3230;42.588;23.358;2024-03-23T06:20:40;7.67;;;4.20;;
6394;SDS011;3230;42.588;23.358;2024-03-23T06:23:06;6.50;;;3.87;;
6394;SDS011;3230;42.588;23.358;2024-03-23T06:25:31;5.00;;;3.40;;
6394;SDS011;3230;42.588;23.358;2024-03-23T06:27:57;5.03;;;3.43;;
6394;SDS011;3230;42.588;23.358;2024-03-23T06:30:23;6.97;;;4.03;;
6394;SDS011;3230;42.588;23.358;2024-03-23T06:32:49;6.77;;;4.60;;
6394;SDS011;3230;42.588;23.358;2024-03-23T06:35:14;7.60;;;5.07;;
6394;SDS011;3230;42.588;23.358;2024-03-23T06:37:39;12.10;;;5.50;;
6394;SDS011;3230;42.588;23.358;2024-03-23T06:40:06;8.50;;;5.40;;
6394;SDS011;3230;42.588;23.358;2024-03-23T06:42:34;11.47;;;6.07;;
6394;SDS011;3230;42.588;23.358;2024-03-23T06:45:00;9.20;;;5.30;;
6394;SDS011;3230;42.588;23.358;2024-03-23T06:47:26;9.20;;;4.83;;
6394;SDS011;3230;42.588;23.358;2024-03-23T06:49:51;9.43;;;4.57;;
6394;SDS011;3230;42.588;23.358;2024-03-23T06:52:17;14.30;;;4.23;;
6394;SDS011;3230;42.588;23.358;2024-03-23T06:54:42;8.03;;;4.60;;
6394;SDS011;3230;42.588;23.358;2024-03-23T06:57:09;10.43;;;5.00;;
6394;SDS011;3230;42.588;23.358;2024-03-23T06:59:36;8.03;;;5.00;;
6394;SDS011;3230;42.588;23.358;2024-03-23T07:02:03;7.00;;;4.63;;
6394;SDS011;3230;42.588;23.358;2024-03-23T07:04:29;6.57;;;4.83;;
6394;SDS011;3230;42.588;23.358;2024-03-23T07:06:54;8.40;;;4.90;;
6394;SDS011;3230;42.588;23.358;2024-03-23T07:09:20;6.97;;;4.40;;
6394;SDS011;3230;42.588;23.358;2024-03-23T07:11:50;8.70;;;5.00;;
6394;SDS011;3230;42.588;23.358;2024-03-23T07:14:15;6.07;;;4.63;;
6394;SDS011;3230;42.588;23.358;2024-03-23T07:16:41;8.53;;;5.43;;
6394;SDS011;3230;42.588;23.358;2024-03-23T07:19:06;9.20;;;4.70;;
6394;SDS011;3230;42.588;23.358;2024-03-23T07:21:31;9.17;;;5.33;;
6394;SDS011;3230;42.588;23.358;2024-03-23T07:23:57;5.87;;;4.20;;
6394;SDS011;3230;42.588;23.358;2024-03-23T07:26:22;6.50;;;4.83;;
6394;SDS011;3230;42.588;23.358;2024-03-23T07:28:48;7.53;;;4.30;;
6394;SDS011;3230;42.588;23.358;2024-03-23T07:31:14;17.77;;;5.70;;
6394;SDS011;3230;42.588;23.358;2024-03-23T07:33:46;8.27;;;5.10;;
6394;SDS011;3230;42.588;23.358;2024-03-23T07:36:12;6.53;;;4.20;;
6394;SDS011;3230;42.588;23.358;2024-03-23T07:38:40;7.50;;;4.70;;
6394;SDS011;3230;42.588;23.358;2024-03-23T07:41:10;10.93;;;5.00;;
6394;SDS011;3230;42.588;23.358;2024-03-23T07:43:37;8.17;;;5.47;;
6394;SDS011;3230;42.588;23.358;2024-03-23T07:46:03;6.70;;;5.00;;
6394;SDS011;3230;42.588;23.358;2024-03-23T07:48:29;7.03;;;4.47;;
6394;SDS011;3230;42.588;23.358;2024-03-23T07:53:34;6.20;;;4.57;;
6394;SDS011;3230;42.588;23.358;2024-03-23T07:56:07;6.60;;;4.10;;
6394;SDS011;3230;42.588;23.358;2024-03-23T07:58:34;8.40;;;4.70;;
6394;SDS011;3230;42.588;23.358;2024-03-23T08:01:08;7.83;;;4.97;;
6394;SDS011;3230;42.588;23.358;2024-03-23T08:03:37;8.07;;;5.30;;
6394;SDS011;3230;42.588;23.358;2024-03-23T08:08:33;11.13;;;5.13;;
6394;SDS011;3230;42.588;23.358;2024-03-23T08:10:59;16.20;;;6.37;;
6394;SDS011;3230;42.588;23.358;2024-03-23T08:13:24;10.00;;;5.17;;
6394;SDS011;3230;42.588;23.358;2024-03-23T08:15:50;12.77;;;5.60;;
6394;SDS011;3230;42.588;23.358;2024-03-23T08:18:15;9.33;;;5.80;;
6394;SDS011;3230;42.588;23.358;2024-03-23T08:20:41;10.97;;;5.40;;
6394;SDS011;3230;42.588;23.358;2024-03-23T08:23:07;14.10;;;6.17;;
6394;SDS011;3230;42.588;23.358;2024-03-23T08:25:33;8.70;;;5.47;;
6394;SDS011;3230;42.588;23.358;2024-03-23T08:27:59;8.00;;;5.37;;
6394;SDS011;3230;42.588;23.358;2024-03-23T08:30:24;10.27;;;5.57;;
6394;SDS011;3230;42.588;23.358;2024-03-23T08:32:50;13.47;;;5.53;;
6394;SDS011;3230;42.588;23.358;2024-03-23T08:35:16;9.40;;;5.57;;
6394;SDS011;3230;42.588;23.358;2024-03-23T08:37:41;9.67;;;5.27;;
6394;SDS011;3230;42.588;23.358;2024-03-23T08:40:07;9.23;;;5.33;;
6394;SDS011;3230;42.588;23.358;2024-03-23T08:42:33;8.60;;;5.40;;
6394;SDS011;3230;42.588;23.358;2024-03-23T08:44:59;12.60;;;5.67;;
6394;SDS011;3230;42.588;23.358;2024-03-23T08:47:24;11.10;;;6.13;;
6394;SDS011;3230;42.588;23.358;2024-03-23T08:49:50;13.07;;;7.20;;
6394;SDS011;3230;42.588;23.358;2024-03-23T08:52:15;11.13;;;6.20;;
6394;SDS011;3230;42.588;23.358;2024-03-23T08:54:41;10.77;;;6.63;;
6394;SDS011;3230;42.588;23.358;2024-03-23T08:57:06;9.80;;;6.30;;
6394;SDS011;3230;42.588;23.358;2024-03-23T08:59:33;15.93;;;7.00;;
6394;SDS011;3230;42.588;23.358;2024-03-23T09:01:58;10.73;;;6.43;;
6394;SDS011;3230;42.588;23.358;2024-03-23T09:04:23;15.80;;;6.13;;
6394;SDS011;3230;42.588;23.358;2024-03-23T09:06:49;12.33;;;6.83;;
6394;SDS011;3230;42.588;23.358;2024-03-23T09:09:15;10.23;;;6.37;;
6394;SDS011;3230;42.588;23.358;2024-03-23T09:11:40;15.87;;;7.43;;
6394;SDS011;3230;42.588;23.358;2024-03-23T09:14:06;14.40;;;7.20;;
6394;SDS011;3230;42.588;23.358;2024-03-23T09:16:31;10.37;;;5.90;;
6394;SDS011;3230;42.588;23.358;2024-03-23T09:18:57;21.60;;;6.00;;
6394;SDS011;3230;42.588;23.358;2024-03-23T09:21:22;11.00;;;5.50;;
6394;SDS011;3230;42.588;23.358;2024-03-23T09:23:47;13.23;;;5.70;;
6394;SDS011;3230;42.588;23.358;2024-03-23T09:26:14;17.67;;;6.03;;
6394;SDS011;3230;42.588;23.358;2024-03-23T09:28:39;9.80;;;5.80;;
6394;SDS011;3230;42.588;23.358;2024-03-23T09:31:05;20.23;;;6.83;;
6394;SDS011;3230;42.588;23.358;2024-03-23T09:33:32;11.40;;;6.00;;
6394;SDS011;3230;42.588;23.358;2024-03-23T09:36:02;11.20;;;5.90;;
6394;SDS011;3230;42.588;23.358;2024-03-23T09:38:28;19.93;;;5.80;;
6394;SDS011;3230;42.588;23.358;2024-03-23T09:40:54;12.40;;;5.50;;
6394;SDS011;3230;42.588;23.358;2024-03-23T09:43:19;9.03;;;5.03;;
6394;SDS011;3230;42.588;23.358;2024-03-23T09:45:45;8.77;;;5.67;;
6394;SDS011;3230;42.588;23.358;2024-03-23T09:48:11;7.20;;;4.60;;
6394;SDS011;3230;42.588;23.358;2024-03-23T09:53:06;13.63;;;4.70;;
6394;SDS011;3230;42.588;23.358;2024-03-23T09:55:32;6.40;;;4.00;;
6394;SDS011;3230;42.588;23.358;2024-03-23T09:57:58;6.90;;;4.50;;
6394;SDS011;3230;42.588;23.358;2024-03-23T10:00:24;9.63;;;5.60;;
6394;SDS011;3230;42.588;23.358;2024-03-23T10:02:50;11.20;;;5.40;;
6394;SDS011;3230;42.588;23.358;2024-03-23T10:05:22;12.40;;;5.10;;
6394;SDS011;3230;42.588;23.358;2024-03-23T10:07:51;6.93;;;3.77;;
6394;SDS011;3230;42.588;23.358;2024-03-23T10:10:17;7.97;;;4.53;;
6394;SDS011;3230;42.588;23.358;2024-03-23T10:12:46;10.80;;;5.40;;
6394;SDS011;3230;42.588;23.358;2024-03-23T10:15:27;13.97;;;5.30;;
6394;SDS011;3230;42.588;23.358;2024-03-23T10:17:52;13.63;;;5.90;;
6394;SDS011;3230;42.588;23.358;2024-03-23T10:20:19;10.67;;;4.83;;
6394;SDS011;3230;42.588;23.358;2024-03-23T10:22:47;17.63;;;6.23;;
6394;SDS011;3230;42.588;23.358;2024-03-23T10:25:13;8.90;;;5.00;;
6394;SDS011;3230;42.588;23.358;2024-03-23T10:27:39;8.60;;;5.43;;
6394;SDS011;3230;42.588;23.358;2024-03-23T10:30:11;7.50;;;5.30;;
6394;SDS011;3230;42.588;23.358;2024-03-23T10:32:40;9.40;;;5.17;;
6394;SDS011;3230;42.588;23.358;2024-03-23T10:35:19;10.80;;;5.63;;
6394;SDS011;3230;42.588;23.358;2024-03-23T10:37:47;9.90;;;5.23;;
6394;SDS011;3230;42.588;23.358;2024-03-23T10:40:14;10.53;;;5.47;;
6394;SDS011;3230;42.588;23.358;2024-03-23T10:42:40;8.50;;;5.53;;
6394;SDS011;3230;42.588;23.358;2024-03-23T10:45:06;10.40;;;5.37;;
6394;SDS011;3230;42.588;23.358;2024-03-23T10:47:36;8.93;;;4.57;;
6394;SDS011;3230;42.588;23.358;2024-03-23T10:50:06;17.73;;;6.73;;
6394;SDS011;3230;42.588;23.358;2024-03-23T10:52:34;9.60;;;5.30;;
6394;SDS011;3230;42.588;23.358;2024-03-23T10:55:02;10.47;;;5.67;;
6394;SDS011;3230;42.588;23.358;2024-03-23T10:57:35;21.53;;;5.87;;
6394;SDS011;3230;42.588;23.358;2024-03-23T11:00:05;8.90;;;5.13;;
6394;SDS011;3230;42.588;23.358;2024-03-23T11:02:31;11.97;;;5.70;;
6394;SDS011;3230;42.588;23.358;2024-03-23T11:04:57;10.93;;;5.57;;
6394;SDS011;3230;42.588;23.358;2024-03-23T11:07:31;13.60;;;5.40;;
6394;SDS011;3230;42.588;23.358;2024-03-23T11:09:58;7.30;;;4.83;;
6394;SDS011;3230;42.588;23.358;2024-03-23T11:12:28;10.57;;;5.43;;
6394;SDS011;3230;42.588;23.358;2024-03-23T11:15:01;7.20;;;4.50;;
6394;SDS011;3230;42.588;23.358;2024-03-23T11:17:31;11.27;;;5.50;;
6394;SDS011;3230;42.588;23.358;2024-03-23T11:20:00;10.40;;;5.40;;
6394;SDS011;3230;42.588;23.358;2024-03-23T11:25:14;23.47;;;6.83;;
6394;SDS011;3230;42.588;23.358;2024-03-23T11:27:51;11.00;;;5.47;;
6394;SDS011;3230;42.588;23.358;2024-03-23T11:30:19;11.13;;;4.93;;
6394;SDS011;3230;42.588;23.358;2024-03-23T11:32:45;38.87;;;6.50;;
6394;SDS011;3230;42.588;23.358;2024-03-23T11:35:27;11.10;;;5.50;;
6394;SDS011;3230;42.588;23.358;2024-03-23T11:40:29;8.40;;;5.27;;
6394;SDS011;3230;42.588;23.358;2024-03-23T11:42:57;10.07;;;5.47;;
6394;SDS011;3230;42.588;23.358;2024-03-23T11:45:23;12.13;;;5.50;;
6394;SDS011;3230;42.588;23.358;2024-03-23T11:48:01;9.93;;;6.00;;
6394;SDS011;3230;42.588;23.358;2024-03-23T11:50:30;10.20;;;5.43;;
6394;SDS011;3230;42.588;23.358;2024-03-23T11:53:15;9.40;;;5.67;;
6394;SDS011;3230;42.588;23.358;2024-03-23T11:55:44;8.30;;;5.50;;
6394;SDS011;3230;42.588;23.358;2024-03-23T11:58:11;9.37;;;5.80;;
6394;SDS011;3230;42.588;23.358;2024-03-23T12:00:37;8.67;;;5.20;;
6394;SDS011;3230;42.588;23.358;2024-03-23T12:03:03;8.20;;;4.80;;
6394;SDS011;3230;42.588;23.358;2024-03-23T12:05:29;10.67;;;5.40;;
6394;SDS011;3230;42.588;23.358;2024-03-23T12:07:55;10.90;;;5.90;;
6394;SDS011;3230;42.588;23.358;2024-03-23T12:10:40;19.90;;;5.40;;
6394;SDS011;3230;42.588;23.358;2024-03-23T12:13:05;12.17;;;6.07;;
6394;SDS011;3230;42.588;23.358;2024-03-23T12:15:31;39.27;;;7.03;;
6394;SDS011;3230;42.588;23.358;2024-03-23T12:18:06;12.33;;;6.40;;
6394;SDS011;3230;42.588;23.358;2024-03-23T12:20:33;9.43;;;4.63;;
6394;SDS011;3230;42.588;23.358;2024-03-23T12:23:05;10.30;;;5.80;;
6394;SDS011;3230;42.588;23.358;2024-03-23T12:25:34;10.17;;;5.90;;
6394;SDS011;3230;42.588;23.358;2024-03-23T12:28:00;11.03;;;5.57;;
6394;SDS011;3230;42.588;23.358;2024-03-23T12:30:26;13.23;;;6.03;;
6394;SDS011;3230;42.588;23.358;2024-03-23T12:32:52;11.53;;;5.70;;
6394;SDS011;3230;42.588;23.358;2024-03-23T12:35:17;8.40;;;5.07;;
6394;SDS011;3230;42.588;23.358;2024-03-23T12:37:43;9.77;;;5.50;;
6394;SDS011;3230;42.588;23.358;2024-03-23T12:40:09;9.90;;;5.73;;
6394;SDS011;3230;42.588;23.358;2024-03-23T12:42:34;8.70;;;4.73;;
6394;SDS011;3230;42.588;23.358;2024-03-23T12:45:00;11.30;;;5.00;;
6394;SDS011;3230;42.588;23.358;2024-03-23T12:47:26;10.17;;;5.90;;
6394;SDS011;3230;42.588;23.358;2024-03-23T12:49:52;9.53;;;5.70;;
6394;SDS011;3230;42.588;23.358;2024-03-23T12:52:17;8.00;;;5.13;;
6394;SDS011;3230;42.588;23.358;2024-03-23T12:54:45;9.53;;;5.20;;
6394;SDS011;3230;42.588;23.358;2024-03-23T12:57:10;16.60;;;5.93;;
6394;SDS011;3230;42.588;23.358;2024-03-23T12:59:35;9.23;;;4.90;;
6394;SDS011;3230;42.588;23.358;2024-03-23T13:02:01;8.43;;;4.73;;
6394;SDS011;3230;42.588;23.358;2024-03-23T13:04:26;8.93;;;4.27;;
6394;SDS011;3230;42.588;23.358;2024-03-23T13:06:51;7.70;;;4.70;;
6394;SDS011;3230;42.588;23.358;2024-03-23T13:09:17;8.00;;;4.33;;
6394;SDS011;3230;42.588;23.358;2024-03-23T13:11:42;7.97;;;4.67;;
6394;SDS011;3230;42.588;23.358;2024-03-23T13:14:07;7.30;;;4.47;;
6394;SDS011;3230;42.588;23.358;2024-03-23T13:16:33;8.73;;;4.03;;
6394;SDS011;3230;42.588;23.358;2024-03-23T13:18:58;5.10;;;3.80;;
6394;SDS011;3230;42.588;23.358;2024-03-23T13:21:25;7.40;;;3.90;;
6394;SDS011;3230;42.588;23.358;2024-03-23T13:23:50;7.37;;;3.97;;
6394;SDS011;3230;42.588;23.358;2024-03-23T13:26:16;6.83;;;3.60;;
6394;SDS011;3230;42.588;23.358;2024-03-23T13:28:41;8.10;;;3.20;;
6394;SDS011;3230;42.588;23.358;2024-03-23T13:31:07;4.20;;;2.97;;
6394;SDS011;3230;42.588;23.358;2024-03-23T13:33:33;5.87;;;3.03;;
6394;SDS011;3230;42.588;23.358;2024-03-23T13:35:59;12.97;;;4.20;;
6394;SDS011;3230;42.588;23.358;2024-03-23T13:38:25;6.43;;;4.30;;
6394;SDS011;3230;42.588;23.358;2024-03-23T13:40:57;7.53;;;3.50;;
6394;SDS011;3230;42.588;23.358;2024-03-23T13:43:24;7.00;;;3.83;;
6394;SDS011;3230;42.588;23.358;2024-03-23T13:45:58;7.63;;;2.93;;
6394;SDS011;3230;42.588;23.358;2024-03-23T13:48:25;6.80;;;3.43;;
6394;SDS011;3230;42.588;23.358;2024-03-23T13:50:58;6.47;;;3.30;;
6394;SDS011;3230;42.588;23.358;2024-03-23T13:53:24;10.17;;;3.40;;
6394;SDS011;3230;42.588;23.358;2024-03-23T13:55:49;4.87;;;3.13;;
6394;SDS011;3230;42.588;23.358;2024-03-23T13:58:15;9.07;;;3.40;;
6394;SDS011;3230;42.588;23.358;2024-03-23T14:00:41;4.50;;;2.80;;
6394;SDS011;3230;42.588;23.358;2024-03-23T14:03:10;5.30;;;2.63;;
6394;SDS011;3230;42.588;23.358;2024-03-23T14:05:37;3.27;;;2.40;;
6394;SDS011;3230;42.588;23.358;2024-03-23T14:08:06;10.63;;;1.80;;
6394;SDS011;3230;42.588;23.358;2024-03-23T14:10:32;4.40;;;3.20;;
6394;SDS011;3230;42.588;23.358;2024-03-23T14:12:57;2.10;;;1.17;;
6394;SDS011;3230;42.588;23.358;2024-03-23T14:15:24;164.43;;;8.93;;
6394;SDS011;3230;42.588;23.358;2024-03-23T14:17:51;2.93;;;1.77;;
6394;SDS011;3230;42.588;23.358;2024-03-23T14:20:16;17.10;;;3.73;;
6394;SDS011;3230;42.588;23.358;2024-03-23T14:22:41;31.27;;;18.37;;
6394;SDS011;3230;42.588;23.358;2024-03-23T14:25:08;47.60;;;28.27;;
6394;SDS011;3230;42.588;23.358;2024-03-23T14:27:34;23.30;;;12.50;;
6394;SDS011;3230;42.588;23.358;2024-03-23T14:30:02;52.73;;;13.03;;
6394;SDS011;3230;42.588;23.358;2024-03-23T14:32:29;24.77;;;9.80;;
6394;SDS011;3230;42.588;23.358;2024-03-23T14:34:59;40.53;;;14.90;;
6394;SDS011;3230;42.588;23.358;2024-03-23T14:37:26;5.10;;;2.73;;
6394;SDS011;3230;42.588;23.358;2024-03-23T14:39:52;26.63;;;3.50;;
6394;SDS011;3230;42.588;23.358;2024-03-23T14:42:17;3.17;;;2.50;;
6394;SDS011;3230;42.588;23.358;2024-03-23T14:44:42;4.33;;;1.70;;
6394;SDS011;3230;42.588;23.358;2024-03-23T14:47:08;10.77;;;2.10;;
6394;SDS011;3230;42.588;23.358;2024-03-23T14:49:33;3.43;;;1.67;;
6394;SDS011;3230;42.588;23.358;2024-03-23T14:51:59;1.40;;;1.30;;
6394;SDS011;3230;42.588;23.358;2024-03-23T14:54:24;2.17;;;1.10;;
6394;SDS011;3230;42.588;23.358;2024-03-23T14:56:49;1.80;;;1.57;;
6394;SDS011;3230;42.588;23.358;2024-03-23T14:59:15;2.57;;;2.10;;
6394;SDS011;3230;42.588;23.358;2024-03-23T15:01:40;4.30;;;1.90;;
6394;SDS011;3230;42.588;23.358;2024-03-23T15:04:06;5.40;;;1.70;;
6394;SDS011;3230;42.588;23.358;2024-03-23T15:06:32;3.40;;;2.00;;
6394;SDS011;3230;42.588;23.358;2024-03-23T15:08:59;13.67;;;6.20;;
6394;SDS011;3230;42.588;23.358;2024-03-23T15:11:24;7.83;;;3.20;;
6394;SDS011;3230;42.588;23.358;2024-03-23T15:13:49;5.90;;;3.77;;
6394;SDS011;3230;42.588;23.358;2024-03-23T15:16:19;5.30;;;2.70;;
6394;SDS011;3230;42.588;23.358;2024-03-23T15:18:47;7.77;;;4.53;;
6394;SDS011;3230;42.588;23.358;2024-03-23T15:21:12;7.70;;;4.13;;
6394;SDS011;3230;42.588;23.358;2024-03-23T15:23:40;6.63;;;3.57;;
6394;SDS011;3230;42.588;23.358;2024-03-23T15:26:08;7.37;;;2.10;;
6394;SDS011;3230;42.588;23.358;2024-03-23T15:28:33;7.77;;;3.23;;
6394;SDS011;3230;42.588;23.358;2024-03-23T15:31:28;3.47;;;2.40;;
6394;SDS011;3230;42.588;23.358;2024-03-23T15:33:54;5.60;;;2.80;;
6394;SDS011;3230;42.588;23.358;2024-03-23T15:36:20;4.30;;;2.73;;
6394;SDS011;3230;42.588;23.358;2024-03-23T15:38:45;9.67;;;4.37;;
6394;SDS011;3230;42.588;23.358;2024-03-23T15:41:11;4.53;;;2.90;;
6394;SDS011;3230;42.588;23.358;2024-03-23T15:43:44;20.60;;;5.97;;
6394;SDS011;3230;42.588;23.358;2024-03-23T15:46:09;31.10;;;7.67;;
6394;SDS011;3230;42.588;23.358;2024-03-23T15:48:44;17.53;;;9.40;;
6394;SDS011;3230;42.588;23.358;2024-03-23T15:51:12;46.73;;;13.27;;
6394;SDS011;3230;42.588;23.358;2024-03-23T15:53:38;22.90;;;10.60;;
6394;SDS011;3230;42.588;23.358;2024-03-23T15:56:04;12.67;;;6.33;;
6394;SDS011;3230;42.588;23.358;2024-03-23T15:58:32;11.87;;;5.57;;
6394;SDS011;3230;42.588;23.358;2024-03-23T16:01:06;8.10;;;3.57;;